Home > Products > Valid Products > MTR

000
SAUS44 KMRX 201812 COR
MTRGDP
METAR KGDP 201751Z AUTO 23019G25KT 10SM CLR 13/M04 A3011 RMK AO2 PK
WND 23027/1730 SLP160 T01281044 10133 20039 58004





000
SAUS44 KMRX 190911 COR
MTRGDP
METAR KGDP 190851Z AUTO 23019KT 10SM CLR 01/M11 A3025 RMK AO2 PK WND
25028/0821 SLP229 T00111106 55009 $





000
SAUS44 KMRX 190712 COR
MTRGDP
METAR KGDP 190651Z AUTO 23019KT 10SM CLR 03/M10 A3025 RMK AO2 PK WND
23030/0625 SLP232 T00281100 401061028 $





000
SAUS44 KMRX 190611 COR
MTRGDP
METAR KGDP 190551Z AUTO 24021KT 10SM CLR 03/M10 A3028 RMK AO2 PK WND
23030/0535 SLP247 T00331100 10067 20022 58002 $





    US Dept of Commerce
    National Oceanic and Atmospheric Administration
    National Weather Service
    1325 East West Highway
    Silver Spring, MD 20910
    Page Author: NWS Internet Services Team
Disclaimer
Information Quality
Credits
Glossary
Privacy Policy
Freedom of Information Act (FOIA)
About Us
Career Opportunities